createdAt,value
2022-11-12T00:01:23.261Z,6.00
2022-11-12T00:04:09.931Z,6.00
2022-11-12T00:06:56.562Z,6.10
2022-11-12T00:09:44.451Z,6.10
2022-11-12T00:12:30.992Z,6.10
2022-11-12T00:15:17.744Z,6.20
2022-11-12T00:18:04.543Z,6.20
2022-11-12T00:20:51.244Z,6.20
2022-11-12T00:23:37.810Z,6.30
2022-11-12T00:26:25.848Z,6.30
2022-11-12T00:29:12.108Z,6.20
2022-11-12T00:31:58.715Z,6.20
2022-11-12T00:34:45.225Z,6.10
2022-11-12T00:37:32.060Z,6.00
2022-11-12T00:40:18.703Z,6.10
2022-11-12T00:43:06.223Z,6.10
2022-11-12T00:45:52.753Z,6.10
2022-11-12T00:48:39.416Z,6.00
2022-11-12T00:51:26.104Z,6.00
2022-11-12T00:54:12.469Z,5.90
2022-11-12T00:56:58.997Z,5.90
2022-11-12T00:59:47.082Z,5.90
2022-11-12T01:02:40.638Z,5.90
2022-11-12T01:05:29.715Z,5.90
2022-11-12T01:08:16.421Z,6.00
2022-11-12T01:11:08.178Z,5.90
2022-11-12T01:13:56.931Z,5.80
2022-11-12T01:16:44.832Z,5.70
2022-11-12T01:19:31.529Z,5.80
2022-11-12T01:22:18.167Z,5.70
2022-11-12T01:25:05.752Z,5.60
2022-11-12T01:27:53.402Z,5.60
2022-11-12T01:30:39.785Z,5.60
2022-11-12T01:33:27.684Z,5.60
2022-11-12T01:36:14.420Z,5.70
2022-11-12T01:39:01.469Z,5.70
2022-11-12T01:41:48.113Z,5.80
2022-11-12T01:44:39.441Z,5.80
2022-11-12T01:47:28.802Z,5.80
2022-11-12T01:50:22.355Z,5.70
2022-11-12T01:53:12.409Z,5.60
2022-11-12T01:56:00.090Z,5.60
2022-11-12T01:58:49.273Z,5.60
2022-11-12T02:01:37.376Z,5.50
2022-11-12T02:04:24.593Z,5.40
2022-11-12T02:07:13.539Z,5.40
2022-11-12T02:10:03.019Z,5.40
2022-11-12T02:13:09.295Z,5.40
2022-11-12T02:15:56.883Z,5.40
2022-11-12T02:18:43.244Z,5.30
2022-11-12T02:21:31.504Z,5.30
2022-11-12T02:24:36.850Z,5.30
2022-11-12T02:27:24.023Z,5.30
2022-11-12T02:30:11.270Z,5.40
2022-11-12T02:32:57.729Z,5.50
2022-11-12T02:35:44.387Z,5.50
2022-11-12T02:38:32.428Z,5.50
2022-11-12T02:41:18.725Z,5.60
2022-11-12T02:44:05.561Z,5.60
2022-11-12T02:46:52.015Z,5.60
2022-11-12T02:49:38.654Z,5.40
2022-11-12T02:52:25.017Z,5.30
2022-11-12T02:55:14.161Z,5.20
2022-11-12T02:58:01.424Z,5.10
2022-11-12T03:00:48.574Z,5.10
2022-11-12T03:03:35.403Z,5.20
2022-11-12T03:06:21.781Z,5.20
2022-11-12T03:09:08.141Z,5.20
2022-11-12T03:11:56.093Z,5.20
2022-11-12T03:14:42.726Z,5.30
2022-11-12T03:17:29.211Z,5.30
2022-11-12T03:20:16.125Z,5.30
2022-11-12T03:23:05.186Z,5.30
2022-11-12T03:25:51.739Z,5.20
2022-11-12T03:28:39.590Z,5.20
2022-11-12T03:31:26.219Z,5.20
2022-11-12T03:34:12.899Z,5.20
2022-11-12T03:36:59.403Z,5.10
2022-11-12T03:39:46.009Z,5.10
2022-11-12T03:42:32.588Z,5.10
2022-11-12T03:45:22.013Z,5.00
2022-11-12T03:48:08.624Z,5.00
2022-11-12T03:50:58.678Z,5.00
2022-11-12T03:53:45.260Z,5.00
2022-11-12T03:56:32.001Z,4.90
2022-11-12T03:59:18.570Z,4.90
2022-11-12T04:02:06.581Z,4.80
2022-11-12T04:05:11.291Z,4.70
2022-11-12T04:08:16.914Z,4.70
2022-11-12T04:11:04.981Z,4.90
2022-11-12T04:13:51.401Z,5.00
2022-11-12T04:17:01.137Z,5.10
2022-11-12T04:20:06.396Z,5.20
2022-11-12T04:23:03.247Z,5.10
2022-11-12T04:26:07.488Z,5.10
2022-11-12T04:29:12.963Z,5.10
2022-11-12T04:31:59.594Z,5.00
2022-11-12T04:34:46.395Z,5.10
2022-11-12T04:37:45.197Z,5.10
2022-11-12T04:40:50.290Z,5.20
2022-11-12T04:43:54.816Z,5.30
2022-11-12T04:46:57.091Z,5.30
2022-11-12T04:49:43.653Z,5.40
2022-11-12T04:52:31.435Z,5.40
2022-11-12T04:55:19.464Z,5.40
2022-11-12T04:58:05.908Z,5.30
2022-11-12T05:00:55.624Z,5.20
2022-11-12T05:03:42.204Z,5.10
2022-11-12T05:06:46.455Z,5.10
2022-11-12T05:09:33.038Z,5.10
2022-11-12T05:12:20.941Z,5.20
2022-11-12T05:15:08.689Z,5.30
2022-11-12T05:17:55.113Z,5.30
2022-11-12T05:20:41.378Z,5.40
2022-11-12T05:23:27.730Z,5.40
2022-11-12T05:26:14.340Z,5.40
2022-11-12T05:29:07.590Z,5.40
2022-11-12T05:31:55.147Z,5.40
2022-11-12T05:34:42.238Z,5.50
2022-11-12T05:37:28.842Z,5.50
2022-11-12T05:40:15.400Z,5.40
2022-11-12T05:43:01.920Z,5.40
2022-11-12T05:45:49.808Z,5.40
2022-11-12T05:48:36.417Z,5.30
2022-11-12T05:51:22.999Z,5.40
2022-11-12T05:54:10.067Z,5.30
2022-11-12T05:56:56.582Z,5.20
2022-11-12T05:59:43.141Z,5.10
2022-11-12T06:02:31.256Z,5.10
2022-11-12T06:05:17.968Z,5.10
2022-11-12T06:08:06.242Z,5.00
2022-11-12T06:10:54.150Z,4.90
2022-11-12T06:13:40.881Z,4.90
2022-11-12T06:16:27.352Z,4.90
2022-11-12T06:19:15.434Z,4.80
2022-11-12T06:22:01.999Z,4.80
2022-11-12T06:24:48.612Z,4.80
2022-11-12T06:27:35.189Z,4.80
2022-11-12T06:30:25.646Z,4.80
2022-11-12T06:33:12.696Z,4.70
2022-11-12T06:36:03.130Z,4.50
2022-11-12T06:38:50.202Z,4.50
2022-11-12T06:41:36.573Z,4.50
2022-11-12T06:44:23.174Z,4.50
2022-11-12T06:47:10.221Z,4.50
2022-11-12T06:49:56.932Z,4.40
2022-11-12T06:52:44.909Z,4.50
2022-11-12T06:55:31.378Z,4.50
2022-11-12T06:58:17.918Z,4.50
2022-11-12T07:01:11.800Z,4.60
2022-11-12T07:03:58.740Z,4.60
2022-11-12T07:06:45.419Z,4.70
2022-11-12T07:09:33.396Z,4.70
2022-11-12T07:12:20.150Z,4.70
2022-11-12T07:15:07.762Z,4.70
2022-11-12T07:17:54.032Z,4.80
2022-11-12T07:20:40.436Z,4.80
2022-11-12T07:23:27.834Z,4.80
2022-11-12T07:26:18.578Z,5.10
2022-11-12T07:29:07.100Z,5.20
2022-11-12T07:31:53.790Z,5.40
2022-11-12T07:34:40.516Z,5.50
2022-11-12T07:37:27.166Z,5.50
2022-11-12T07:40:13.900Z,5.50
2022-11-12T07:43:01.808Z,5.60
2022-11-12T07:45:48.112Z,5.70
2022-11-12T07:48:35.275Z,5.90
2022-11-12T07:51:23.911Z,5.90
2022-11-12T07:54:10.449Z,6.00
2022-11-12T07:56:56.564Z,6.10
2022-11-12T07:59:46.392Z,6.20
2022-11-12T08:02:33.296Z,6.20
2022-11-12T08:05:21.511Z,6.30
2022-11-12T08:08:07.964Z,6.40
2022-11-12T08:10:56.838Z,6.50
2022-11-12T08:13:43.311Z,6.50
2022-11-12T08:16:31.020Z,6.50
2022-11-12T08:19:17.763Z,6.50
2022-11-12T08:22:04.668Z,6.70
2022-11-12T08:24:50.951Z,6.70
2022-11-12T08:27:37.403Z,6.80
2022-11-12T08:30:23.842Z,6.90
2022-11-12T08:33:11.702Z,7.00
2022-11-12T08:35:59.334Z,7.00
2022-11-12T08:38:46.587Z,7.00
2022-11-12T08:41:33.535Z,7.10
2022-11-12T08:44:20.171Z,7.20
2022-11-12T08:47:06.791Z,7.30
2022-11-12T08:49:54.634Z,7.40
2022-11-12T08:52:41.220Z,7.40
2022-11-12T08:55:28.115Z,7.70
2022-11-12T08:58:14.494Z,7.80
2022-11-12T09:01:05.791Z,7.90
2022-11-12T09:03:52.207Z,8.00
2022-11-12T09:06:40.000Z,8.10
2022-11-12T09:09:26.712Z,8.20
2022-11-12T09:12:19.642Z,8.40
2022-11-12T09:15:37.030Z,8.60
2022-11-12T09:18:16.126Z,8.80
2022-11-12T09:21:04.830Z,8.90
2022-11-12T09:23:52.933Z,9.00
2022-11-12T09:26:39.577Z,9.20
2022-11-12T09:29:25.989Z,9.30
2022-11-12T09:32:12.575Z,9.30
2022-11-12T09:34:59.353Z,9.40
2022-11-12T09:37:45.888Z,9.50
2022-11-12T09:41:02.480Z,9.60
2022-11-12T09:43:51.869Z,9.60
2022-11-12T09:46:44.523Z,9.80
2022-11-12T09:49:34.988Z,9.90
2022-11-12T09:52:26.169Z,9.90
2022-11-12T09:55:20.475Z,10.00
2022-11-12T09:58:12.996Z,10.00
2022-11-12T10:01:06.764Z,10.10
2022-11-12T10:04:04.109Z,10.20
2022-11-12T10:07:04.220Z,10.10
2022-11-12T10:10:02.150Z,10.20
2022-11-12T10:13:07.453Z,10.30
2022-11-12T10:16:23.243Z,10.50
2022-11-12T10:19:32.521Z,10.70
2022-11-12T10:22:30.175Z,11.00
2022-11-12T10:25:19.288Z,11.50
2022-11-12T10:28:17.889Z,11.80
2022-11-12T10:31:12.950Z,12.10
2022-11-12T10:34:16.754Z,12.40
2022-11-12T10:37:07.502Z,12.80
2022-11-12T10:39:54.241Z,13.10
2022-11-12T10:42:58.017Z,13.40
2022-11-12T10:45:45.180Z,13.70
2022-11-12T10:48:34.995Z,14.00
2022-11-12T10:51:26.859Z,14.10
2022-11-12T10:54:30.464Z,14.10
2022-11-12T10:57:22.138Z,14.20
2022-11-12T11:00:15.830Z,14.30
2022-11-12T11:03:07.156Z,14.40
2022-11-12T11:05:58.123Z,14.80
2022-11-12T11:08:47.035Z,14.80
2022-11-12T11:11:33.761Z,14.80
2022-11-12T11:14:28.970Z,14.90
2022-11-12T11:17:19.349Z,15.00
2022-11-12T11:20:07.195Z,15.30
2022-11-12T11:22:57.872Z,15.60
2022-11-12T11:25:45.464Z,15.50
2022-11-12T11:28:39.528Z,15.60
2022-11-12T11:31:36.210Z,15.60
2022-11-12T11:34:34.213Z,15.80
2022-11-12T11:37:27.920Z,15.90
2022-11-12T11:40:25.095Z,16.20
2022-11-12T11:43:26.099Z,16.10
2022-11-12T11:46:22.913Z,16.00
2022-11-12T11:49:34.679Z,15.80
2022-11-12T11:52:40.282Z,15.80
2022-11-12T11:55:37.947Z,15.60
2022-11-12T11:58:44.723Z,15.50
2022-11-12T12:01:43.853Z,15.30
2022-11-12T12:04:45.989Z,15.10
2022-11-12T12:07:42.742Z,15.10
2022-11-12T12:11:01.662Z,15.10
2022-11-12T12:13:59.895Z,15.10
2022-11-12T12:16:57.590Z,15.00
2022-11-12T12:19:56.957Z,14.80
2022-11-12T12:22:47.870Z,14.60
2022-11-12T12:25:39.878Z,14.30
2022-11-12T12:28:36.245Z,14.10
2022-11-12T12:31:28.901Z,13.90
2022-11-12T12:34:21.572Z,14.00
2022-11-12T12:37:15.827Z,14.00
2022-11-12T12:40:09.917Z,14.00
2022-11-12T12:43:06.750Z,13.90
2022-11-12T12:45:53.351Z,13.90
2022-11-12T12:48:42.411Z,14.10
2022-11-12T12:51:32.202Z,14.10
2022-11-12T12:54:54.276Z,14.10
2022-11-12T12:57:41.548Z,14.20
2022-11-12T13:00:35.646Z,14.10
2022-11-12T13:03:52.068Z,13.90
2022-11-12T13:06:40.507Z,13.90
2022-11-12T13:09:28.433Z,14.00
2022-11-12T13:12:23.907Z,14.10
2022-11-12T13:15:16.309Z,14.00
2022-11-12T13:18:04.263Z,14.10
2022-11-12T13:21:09.200Z,14.00
2022-11-12T13:24:11.390Z,13.90
2022-11-12T13:26:58.956Z,13.80
2022-11-12T13:29:46.931Z,14.00
2022-11-12T13:32:36.178Z,14.20
2022-11-12T13:35:31.101Z,14.30
2022-11-12T13:38:19.959Z,14.40
2022-11-12T13:41:12.189Z,14.40
2022-11-12T13:43:58.995Z,14.40
2022-11-12T13:46:46.578Z,14.40
2022-11-12T13:49:32.991Z,14.30
2022-11-12T13:52:21.022Z,14.20
2022-11-12T13:55:14.213Z,14.10
2022-11-12T13:58:00.602Z,14.00
2022-11-12T14:00:53.856Z,13.90
2022-11-12T14:03:44.981Z,13.80
2022-11-12T14:06:37.340Z,13.80
2022-11-12T14:09:47.046Z,13.70
2022-11-12T14:12:55.987Z,13.70
2022-11-12T14:16:06.839Z,13.70
2022-11-12T14:19:18.182Z,13.60
2022-11-12T14:22:15.762Z,13.60
2022-11-12T14:25:05.291Z,13.60
2022-11-12T14:27:53.285Z,13.70
2022-11-12T14:30:45.415Z,13.70
2022-11-12T14:33:33.572Z,13.70
2022-11-12T14:36:21.059Z,13.70
2022-11-12T14:39:08.063Z,13.70
2022-11-12T14:41:56.957Z,13.70
2022-11-12T14:44:43.585Z,13.70
2022-11-12T14:47:30.230Z,13.60
2022-11-12T14:50:19.921Z,13.60
2022-11-12T14:53:12.564Z,13.50
2022-11-12T14:56:01.531Z,13.40
2022-11-12T14:58:49.768Z,13.30
2022-11-12T15:04:46.557Z,13.30
2022-11-12T15:07:34.653Z,13.10
2022-11-12T15:10:36.157Z,13.20
2022-11-12T15:13:25.281Z,13.10
2022-11-12T15:16:19.671Z,13.00
2022-11-12T15:19:19.674Z,12.90
2022-11-12T15:22:06.480Z,12.90
2022-11-12T15:24:53.334Z,12.80
2022-11-12T15:27:41.959Z,12.60
2022-11-12T15:30:31.727Z,12.40
2022-11-12T15:33:23.393Z,12.20
2022-11-12T15:36:18.237Z,12.10
2022-11-12T15:39:05.117Z,11.90
2022-11-12T15:41:59.032Z,11.60
2022-11-12T15:44:46.310Z,11.40
2022-11-12T15:47:33.703Z,11.40
2022-11-12T15:50:23.571Z,11.40
2022-11-12T15:53:10.583Z,11.40
2022-11-12T15:55:57.325Z,11.40
2022-11-12T15:58:43.876Z,11.30
2022-11-12T16:01:30.283Z,11.10
2022-11-12T16:04:16.858Z,10.90
2022-11-12T16:07:06.867Z,10.70
2022-11-12T16:09:54.200Z,10.60
2022-11-12T16:12:41.197Z,10.50
2022-11-12T16:15:27.993Z,10.40
2022-11-12T16:18:14.294Z,10.30
2022-11-12T16:21:00.913Z,10.20
2022-11-12T16:23:48.871Z,10.20
2022-11-12T16:26:36.673Z,10.10
2022-11-12T16:29:23.094Z,10.20
2022-11-12T16:32:13.886Z,10.20
2022-11-12T16:35:01.428Z,10.20
2022-11-12T16:37:48.763Z,10.10
2022-11-12T16:40:36.744Z,10.00
2022-11-12T16:43:23.165Z,9.80
2022-11-12T16:46:24.937Z,9.70
2022-11-12T16:49:13.226Z,9.60
2022-11-12T16:51:59.960Z,9.40
2022-11-12T16:54:46.282Z,9.30
2022-11-12T16:57:34.309Z,9.20
2022-11-12T17:00:21.093Z,9.10
2022-11-12T17:03:08.436Z,8.90
2022-11-12T17:05:55.262Z,8.80
2022-11-12T17:08:41.673Z,8.70
2022-11-12T17:11:28.334Z,8.70
2022-11-12T17:14:16.763Z,8.60
2022-11-12T17:17:03.157Z,8.60
2022-11-12T17:19:49.743Z,8.40
2022-11-12T17:22:36.417Z,8.30
2022-11-12T17:25:23.038Z,8.20
2022-11-12T17:28:09.846Z,8.10
2022-11-12T17:31:08.824Z,8.10
2022-11-12T17:33:55.528Z,8.00
2022-11-12T17:36:43.720Z,7.90
2022-11-12T17:39:30.481Z,7.80
2022-11-12T17:42:17.100Z,7.80
2022-11-12T17:45:03.970Z,7.70
2022-11-12T17:47:51.943Z,7.70
2022-11-12T17:50:38.725Z,7.70
2022-11-12T17:53:25.676Z,7.70
2022-11-12T17:56:14.269Z,7.60
2022-11-12T17:59:00.733Z,7.60
2022-11-12T18:01:47.261Z,7.60
2022-11-12T18:04:35.195Z,7.60
2022-11-12T18:07:21.718Z,7.50
2022-11-12T18:10:08.845Z,7.50
2022-11-12T18:12:55.921Z,7.50
2022-11-12T18:15:42.506Z,7.40
2022-11-12T18:18:29.813Z,7.30
2022-11-12T18:21:18.079Z,7.20
2022-11-12T18:24:13.178Z,7.10
2022-11-12T18:26:59.869Z,7.00
2022-11-12T18:29:47.046Z,7.10
2022-11-12T18:32:33.570Z,7.10
2022-11-12T18:35:20.280Z,7.00
2022-11-12T18:38:08.291Z,7.00
2022-11-12T18:41:02.288Z,7.00
2022-11-12T18:43:48.904Z,7.00
2022-11-12T18:46:35.599Z,7.00
2022-11-12T18:49:22.554Z,7.00
2022-11-12T18:52:09.190Z,7.10
2022-11-12T18:54:56.853Z,7.20
2022-11-12T18:57:43.487Z,7.20
2022-11-12T19:00:30.208Z,7.00
2022-11-12T19:03:16.944Z,6.90
2022-11-12T19:06:05.702Z,6.80
2022-11-12T19:08:52.725Z,6.90
2022-11-12T19:11:40.607Z,6.90
2022-11-12T19:14:27.396Z,6.80
2022-11-12T19:17:14.046Z,6.70
2022-11-12T19:20:00.565Z,6.60
2022-11-12T19:22:47.514Z,6.50
2022-11-12T19:25:35.948Z,6.40
2022-11-12T19:28:24.024Z,6.30
2022-11-12T19:31:15.360Z,6.20
2022-11-12T19:34:02.199Z,6.10
2022-11-12T19:37:00.621Z,6.10
2022-11-12T19:39:55.057Z,6.10
2022-11-12T19:42:41.765Z,6.20
2022-11-12T19:45:29.792Z,6.20
2022-11-12T19:48:16.707Z,6.10
2022-11-12T19:51:04.030Z,6.10
2022-11-12T19:53:50.926Z,6.10
2022-11-12T19:56:37.391Z,6.10
2022-11-12T19:59:24.063Z,6.00
2022-11-12T20:02:13.783Z,6.00
2022-11-12T20:05:00.522Z,6.00
2022-11-12T20:07:49.513Z,6.00
2022-11-12T20:10:35.880Z,6.20
2022-11-12T20:13:22.415Z,6.20
2022-11-12T20:16:10.491Z,6.20
2022-11-12T20:18:59.167Z,6.20
2022-11-12T20:21:45.414Z,6.20
2022-11-12T20:24:32.225Z,6.10
2022-11-12T20:27:18.815Z,6.00
2022-11-12T20:30:06.591Z,6.00
2022-11-12T20:32:52.943Z,6.00
2022-11-12T20:35:41.103Z,6.00
2022-11-12T20:38:28.275Z,5.90
2022-11-12T20:41:16.850Z,5.90
2022-11-12T20:44:03.604Z,5.80
2022-11-12T20:46:50.380Z,5.80
2022-11-12T20:49:36.850Z,5.80
2022-11-12T20:52:24.935Z,6.00
2022-11-12T20:55:11.208Z,6.00
2022-11-12T20:57:57.711Z,5.80
2022-11-12T21:00:44.670Z,5.80
2022-11-12T21:03:31.290Z,5.70
2022-11-12T21:06:19.548Z,5.70
2022-11-12T21:09:07.698Z,5.60
2022-11-12T21:11:54.482Z,5.50
2022-11-12T21:14:43.715Z,5.50
2022-11-12T21:17:32.747Z,5.40
2022-11-12T21:20:19.368Z,5.30
2022-11-12T21:23:06.087Z,5.30
2022-11-12T21:25:53.730Z,5.30
2022-11-12T21:28:42.817Z,5.30
2022-11-12T21:31:30.823Z,5.30
2022-11-12T21:34:17.350Z,5.30
2022-11-12T21:37:03.917Z,5.30
2022-11-12T21:39:50.343Z,5.20
2022-11-12T21:42:38.428Z,5.20
2022-11-12T21:45:24.832Z,5.30
2022-11-12T21:48:11.170Z,5.30
2022-11-12T21:51:02.864Z,5.30
2022-11-12T21:53:53.830Z,5.30
2022-11-12T21:56:40.229Z,5.30
2022-11-12T21:59:28.105Z,5.30
2022-11-12T22:02:15.126Z,5.40
2022-11-12T22:05:01.771Z,5.60
2022-11-12T22:07:48.562Z,5.60
2022-11-12T22:10:35.056Z,5.60
2022-11-12T22:13:28.953Z,5.70
2022-11-12T22:16:18.398Z,5.50
2022-11-12T22:19:05.105Z,5.40
2022-11-12T22:21:51.539Z,5.30
2022-11-12T22:24:38.051Z,5.30
2022-11-12T22:27:25.613Z,5.30
2022-11-12T22:30:13.071Z,5.30
2022-11-12T22:33:01.599Z,5.30
2022-11-12T22:35:47.873Z,5.40
2022-11-12T22:38:35.830Z,5.40
2022-11-12T22:41:24.192Z,5.30
2022-11-12T22:44:10.815Z,5.20
2022-11-12T22:46:57.941Z,5.20
2022-11-12T22:49:45.860Z,5.10
2022-11-12T22:52:32.539Z,5.10
2022-11-12T22:55:19.228Z,5.00
2022-11-12T22:58:05.791Z,5.00
2022-11-12T23:00:52.127Z,4.90
2022-11-12T23:03:38.961Z,4.80
2022-11-12T23:06:27.833Z,4.70
2022-11-12T23:09:16.720Z,4.70
2022-11-12T23:12:03.232Z,4.70
2022-11-12T23:14:49.520Z,4.60
2022-11-12T23:17:36.116Z,4.60
2022-11-12T23:20:22.639Z,4.50
2022-11-12T23:23:10.381Z,4.50
2022-11-12T23:26:02.933Z,4.50
2022-11-12T23:28:49.876Z,4.50
2022-11-12T23:31:36.282Z,4.50
2022-11-12T23:34:22.800Z,4.50
2022-11-12T23:37:09.095Z,4.50
2022-11-12T23:39:56.866Z,4.50
2022-11-12T23:42:43.451Z,4.40
2022-11-12T23:45:30.191Z,4.40
2022-11-12T23:48:16.745Z,4.40
2022-11-12T23:51:05.837Z,4.30
2022-11-12T23:53:52.456Z,4.30
2022-11-12T23:56:40.438Z,4.20
2022-11-12T23:59:27.036Z,4.10
